Time;durP1;ratioP1;P1;durP2;ratioP2;P2;SDS_P1;SDS_P2;PMS_P1;PMS_P2;Temp;Humidity;BMP_temperature;BMP_pressure;BME280_temperature;BME280_humidity;BME280_pressure;Samples;Min_cycle;Max_cycle;Signal;HPM_P1;HPM_P2
2021/11/15 00:01:02;;;;;;;1.15;1.00;;;;;;;0.47;71.77;100064.59;5052224;28;20045;-63
2021/11/15 00:03:28;;;;;;;1.30;1.20;;;;;;;0.42;71.11;100067.69;5052266;28;20045;-64
2021/11/15 00:05:54;;;;;;;0.90;0.90;;;;;;;0.47;71.03;100065.41;5052104;28;20132;-63
2021/11/15 00:08:20;;;;;;;2.05;1.13;;;;;;;0.47;70.94;100072.41;5052141;28;20041;-63
2021/11/15 00:10:46;;;;;;;1.02;0.98;;;;;;;0.40;71.16;100067.00;5050632;28;20045;-63
2021/11/15 00:13:12;;;;;;;1.35;1.10;;;;;;;0.48;70.32;100077.50;5033846;28;20037;-64
2021/11/15 00:15:38;;;;;;;1.00;1.00;;;;;;;0.49;69.72;100080.91;5051924;28;20048;-63
2021/11/15 00:18:06;;;;;;;2.22;1.20;;;;;;;0.51;69.84;100086.81;5050541;28;20045;-63
2021/11/15 00:20:32;;;;;;;1.70;1.10;;;;;;;0.45;67.41;100085.63;5051639;28;20048;-63
2021/11/15 00:22:57;;;;;;;0.70;0.70;;;;;;;0.38;66.97;100098.47;5033750;28;20456;-63
2021/11/15 00:25:24;;;;;;;1.10;1.00;;;;;;;0.36;66.85;100104.81;5050925;28;20076;-64
2021/11/15 00:27:50;;;;;;;0.70;0.70;;;;;;;0.25;66.60;100094.63;5051500;28;20033;-65
2021/11/15 00:30:16;;;;;;;0.70;0.70;;;;;;;0.39;67.75;100099.28;5050907;28;20037;-64
2021/11/15 00:32:43;;;;;;;1.10;1.00;;;;;;;0.48;68.42;100105.38;5051769;28;20045;-65
2021/11/15 00:35:10;;;;;;;1.13;1.00;;;;;;;0.39;68.76;100102.72;5051274;28;20052;-63
2021/11/15 00:37:36;;;;;;;2.00;0.90;;;;;;;0.42;68.91;100112.84;5033736;28;20044;-64
2021/11/15 00:40:04;;;;;;;0.98;0.90;;;;;;;0.43;70.13;100104.03;5050165;28;20047;-63
2021/11/15 00:42:30;;;;;;;1.30;0.90;;;;;;;0.47;70.09;100104.53;5050074;28;20163;-63
2021/11/15 00:44:56;;;;;;;0.88;0.88;;;;;;;0.42;70.06;100110.22;5051615;28;20504;-63
2021/11/15 00:47:22;;;;;;;1.15;1.00;;;;;;;0.47;71.19;100119.38;5050238;28;20047;-63
2021/11/15 00:49:48;;;;;;;0.88;0.88;;;;;;;0.39;71.61;100117.56;5049979;28;20044;-63
2021/11/15 00:52:13;;;;;;;1.30;1.20;;;;;;;0.41;72.29;100121.66;5050340;28;20061;-63
2021/11/15 00:54:39;;;;;;;1.02;1.00;;;;;;;0.51;72.23;100126.75;5051279;28;20043;-63
2021/11/15 00:57:05;;;;;;;1.13;1.08;;;;;;;0.48;71.60;100126.25;5051785;28;20076;-63
2021/11/15 00:59:32;;;;;;;3.35;1.10;;;;;;;0.44;71.13;100123.94;5051778;28;20044;-63
2021/11/15 01:02:00;;;;;;;4.13;1.20;;;;;;;0.44;71.87;100123.94;5051672;28;20048;-63
2021/11/15 01:04:26;;;;;;;0.85;0.82;;;;;;;0.47;70.68;100135.03;5051208;28;20072;-63
2021/11/15 01:06:53;;;;;;;5.05;1.38;;;;;;;0.55;71.22;100128.06;5051618;28;20088;-63
2021/11/15 01:09:19;;;;;;;2.35;1.30;;;;;;;0.52;69.88;100133.59;5016951;28;20037;-63
2021/11/15 01:11:46;;;;;;;0.80;0.80;;;;;;;0.48;70.36;100150.53;5051070;28;20072;-63
2021/11/15 01:14:11;;;;;;;0.85;0.85;;;;;;;0.53;70.17;100155.28;5033267;28;20045;-63
2021/11/15 01:16:37;;;;;;;1.55;0.95;;;;;;;0.50;71.07;100148.59;5033513;28;20413;-62
2021/11/15 01:19:04;;;;;;;0.90;0.90;;;;;;;0.49;70.65;100146.13;5051222;28;20346;-64
2021/11/15 01:21:30;;;;;;;0.82;0.82;;;;;;;0.43;71.23;100145.75;5016808;28;20044;-63
2021/11/15 01:23:58;;;;;;;0.82;0.82;;;;;;;0.32;70.39;100151.22;5051009;28;20181;-63
2021/11/15 01:26:24;;;;;;;0.80;0.80;;;;;;;0.25;70.13;100147.59;5051001;28;20045;-64
2021/11/15 01:28:50;;;;;;;1.10;1.00;;;;;;;0.29;70.09;100148.91;5049770;28;20083;-63
2021/11/15 01:31:18;;;;;;;0.75;0.75;;;;;;;0.28;69.61;100154.31;5049502;28;20210;-63
2021/11/15 01:33:44;;;;;;;0.80;0.80;;;;;;;0.29;69.69;100159.34;5050304;28;20130;-64
2021/11/15 01:36:10;;;;;;;0.88;0.88;;;;;;;0.32;69.26;100168.66;5016703;28;20091;-63
2021/11/15 01:38:37;;;;;;;0.73;0.73;;;;;;;0.29;69.12;100172.38;5050055;28;20037;-64
2021/11/15 01:41:04;;;;;;;0.60;0.60;;;;;;;0.29;68.50;100166.38;5051060;28;20136;-63
2021/11/15 01:43:30;;;;;;;0.80;0.80;;;;;;;0.32;67.68;100163.44;5032957;28;20037;-63
2021/11/15 01:45:56;;;;;;;0.90;0.60;;;;;;;0.30;67.64;100162.81;5049510;28;20556;-62
2021/11/15 01:48:21;;;;;;;0.90;0.68;;;;;;;0.24;67.92;100164.22;5054709;28;20069;-61
2021/11/15 01:50:48;;;;;;;0.70;0.70;;;;;;;0.17;68.06;100187.44;5054823;28;20465;-62
2021/11/15 01:53:15;;;;;;;1.05;0.60;;;;;;;0.19;67.68;100180.31;5054663;28;20075;-63
2021/11/15 01:55:42;;;;;;;0.70;0.70;;;;;;;0.10;68.88;100191.66;5054556;28;20091;-64
2021/11/15 01:58:10;;;;;;;0.63;0.60;;;;;;;0.15;69.18;100191.22;5053482;28;20133;-62
2021/11/15 02:00:43;;;;;;;0.75;0.70;;;;;;;0.09;69.58;100203.06;5053004;28;20045;-62
2021/11/15 02:03:09;;;;;;;0.60;0.60;;;;;;;0.12;69.73;100192.31;5054442;28;20418;-62
2021/11/15 02:05:36;;;;;;;0.70;0.70;;;;;;;0.26;69.61;100195.34;5054246;28;20045;-62
2021/11/15 02:08:03;;;;;;;0.90;0.90;;;;;;;0.18;70.19;100193.50;5052562;28;20036;-64
2021/11/15 02:10:29;;;;;;;0.70;0.70;;;;;;;0.28;69.43;100211.69;5054231;28;20056;-62
2021/11/15 02:12:54;;;;;;;0.68;0.68;;;;;;;0.22;69.54;100213.91;5053205;28;20083;-61
2021/11/15 02:15:21;;;;;;;0.70;0.70;;;;;;;0.11;70.58;100206.31;5053029;28;20063;-62
2021/11/15 02:17:48;;;;;;;0.63;0.63;;;;;;;0.17;70.79;100203.09;5053143;28;20041;-62
2021/11/15 02:20:17;;;;;;;0.60;0.60;;;;;;;0.15;70.39;100231.13;5036186;28;20045;-62
2021/11/15 02:22:43;;;;;;;0.73;0.70;;;;;;;0.09;70.94;100210.88;5053071;28;20410;-63
2021/11/15 02:25:09;;;;;;;0.73;0.73;;;;;;;0.19;70.15;100209.00;5052634;28;20059;-62
2021/11/15 02:27:35;;;;;;;1.00;0.90;;;;;;;0.18;71.03;100215.19;5054081;28;20131;-62
2021/11/15 02:30:04;;;;;;;0.82;0.82;;;;;;;0.15;70.65;100212.88;5052797;28;20044;-62
2021/11/15 02:32:31;;;;;;;0.90;0.85;;;;;;;0.19;70.86;100208.19;5053753;28;20506;-63
2021/11/15 02:34:58;;;;;;;0.85;0.73;;;;;;;0.21;71.28;100212.28;5052404;28;20106;-62
2021/11/15 02:37:23;;;;;;;1.75;0.90;;;;;;;0.25;71.36;100214.59;5054155;28;20041;-63
2021/11/15 02:39:50;;;;;;;0.82;0.80;;;;;;;0.30;70.93;100217.56;5054217;28;20189;-62
2021/11/15 02:42:16;;;;;;;0.93;0.80;;;;;;;0.38;70.19;100218.47;5054087;28;20514;-61
2021/11/15 02:44:42;;;;;;;0.70;0.70;;;;;;;0.36;70.78;100233.44;5052355;28;20043;-62
2021/11/15 02:47:08;;;;;;;1.02;0.70;;;;;;;0.31;71.05;100225.22;5054029;28;20118;-63
2021/11/15 02:49:35;;;;;;;1.15;0.90;;;;;;;0.40;71.33;100233.94;5053428;28;20490;-61
2021/11/15 02:52:00;;;;;;;0.65;0.65;;;;;;;0.33;71.37;100238.94;5053805;28;20074;-64
2021/11/15 02:54:26;;;;;;;0.60;0.60;;;;;;;0.27;71.71;100249.97;5052232;28;20070;-62
2021/11/15 02:56:53;;;;;;;1.25;1.10;;;;;;;0.32;71.66;100236.47;5053756;28;20122;-62
2021/11/15 02:59:18;;;;;;;1.67;0.98;;;;;;;0.32;71.69;100226.84;5052047;28;20124;-63
2021/11/15 03:01:46;;;;;;;1.80;1.00;;;;;;;0.39;71.68;100238.34;5052124;28;20049;-62
2021/11/15 03:04:14;;;;;;;1.58;1.10;;;;;;;0.34;71.56;100227.53;5053289;28;20048;-63
2021/11/15 03:06:40;;;;;;;1.55;1.05;;;;;;;0.34;71.21;100237.16;5053459;28;20175;-62
2021/11/15 03:09:06;;;;;;;1.10;1.00;;;;;;;0.30;71.73;100247.06;5053161;28;20131;-63
2021/11/15 03:11:31;;;;;;;2.60;0.85;;;;;;;0.36;71.96;100253.47;5052949;28;20048;-62
2021/11/15 03:13:57;;;;;;;1.25;1.05;;;;;;;0.27;72.13;100254.38;5053235;28;20049;-63
2021/11/15 03:16:23;;;;;;;1.20;1.10;;;;;;;0.28;72.28;100254.22;5051710;28;20051;-62
2021/11/15 03:18:49;;;;;;;1.10;1.10;;;;;;;0.32;72.32;100270.38;5051540;28;20053;-63
2021/11/15 03:21:23;;;;;;;2.65;1.00;;;;;;;0.37;71.74;100268.97;5052526;28;20037;-62
2021/11/15 03:23:52;;;;;;;1.42;0.90;;;;;;;0.31;72.45;100271.34;5051754;28;20147;-63
2021/11/15 03:26:18;;;;;;;1.20;1.10;;;;;;;0.28;72.43;100272.47;5053051;28;20104;-62
2021/11/15 03:28:46;;;;;;;1.15;1.00;;;;;;;0.18;72.36;100285.59;5052752;28;20045;-63
2021/11/15 03:31:19;;;;;;;0.90;0.90;;;;;;;0.19;72.65;100276.78;5052743;28;20527;-63
2021/11/15 03:33:47;;;;;;;1.23;1.13;;;;;;;0.19;72.36;100274.19;5052478;28;20049;-63
2021/11/15 03:36:12;;;;;;;1.95;1.10;;;;;;;0.30;72.27;100270.53;5052897;28;20049;-63
2021/11/15 03:38:40;;;;;;;1.73;1.20;;;;;;;0.28;72.37;100276.88;5052790;28;20047;-64
2021/11/15 03:41:07;;;;;;;1.33;1.20;;;;;;;0.25;72.56;100285.81;5051318;28;20041;-63
2021/11/15 03:43:33;;;;;;;1.55;1.27;;;;;;;0.24;72.61;100276.34;5051482;28;20055;-64
2021/11/15 03:46:00;;;;;;;1.95;1.38;;;;;;;0.20;72.96;100275.00;5051346;28;20040;-62
2021/11/15 03:48:26;;;;;;;1.90;1.40;;;;;;;-0.06;73.12;100249.66;5052291;28;20119;-64
2021/11/15 03:50:55;;;;;;;1.55;1.00;;;;;;;-0.06;73.58;100273.13;5052579;28;20045;-63
2021/11/15 03:53:24;;;;;;;2.97;1.30;;;;;;;-0.20;74.16;100286.66;5051867;28;20106;-64
2021/11/15 03:55:51;;;;;;;1.13;1.02;;;;;;;-0.21;74.67;100295.41;5051056;28;20037;-64
2021/11/15 03:58:17;;;;;;;1.95;0.90;;;;;;;-0.28;74.77;100297.78;5052367;28;20083;-64
2021/11/15 04:00:43;;;;;;;2.25;1.17;;;;;;;-0.33;75.31;100299.19;5052310;28;20052;-64
2021/11/15 04:03:17;;;;;;;0.93;0.93;;;;;;;-0.40;75.61;100318.97;5033886;28;20540;-61
2021/11/15 04:05:49;;;;;;;1.20;1.10;;;;;;;-0.40;75.62;100324.19;5052077;28;20049;-64
2021/11/15 04:08:15;;;;;;;1.35;0.90;;;;;;;-0.51;75.31;100335.59;5052082;28;20079;-62
2021/11/15 04:10:42;;;;;;;2.88;1.08;;;;;;;-0.69;75.34;100328.50;5051742;28;20077;-64
2021/11/15 04:13:17;;;;;;;1.30;0.80;;;;;;;-0.66;75.53;100340.44;5051913;28;20409;-64
2021/11/15 04:15:45;;;;;;;0.80;0.80;;;;;;;-0.73;74.04;100357.59;5052204;28;20098;-63
2021/11/15 04:18:12;;;;;;;0.60;0.60;;;;;;;-0.72;73.87;100354.00;5050691;28;20037;-63
2021/11/15 04:20:38;;;;;;;0.60;0.60;;;;;;;-0.80;72.07;100364.28;5051835;28;20106;-63
2021/11/15 04:23:04;;;;;;;0.57;0.57;;;;;;;-0.71;72.07;100374.72;5050537;28;20036;-63
2021/11/15 04:25:30;;;;;;;0.88;0.70;;;;;;;-0.58;71.32;100363.16;5051547;28;20063;-63
2021/11/15 04:27:56;;;;;;;0.60;0.60;;;;;;;-0.48;70.39;100369.16;5051957;28;20558;-63
2021/11/15 04:30:22;;;;;;;0.80;0.80;;;;;;;-0.39;70.24;100383.94;5050234;28;20037;-63
2021/11/15 04:32:48;;;;;;;1.23;0.80;;;;;;;-0.34;69.71;100392.16;5051559;28;20047;-63
2021/11/15 04:35:18;;;;;;;1.90;0.80;;;;;;;-0.39;70.31;100385.72;5051544;28;20132;-64
2021/11/15 04:37:44;;;;;;;;;;;;;;;-0.35;70.60;100387.91;5052101;28;20660;-63
2021/11/15 04:40:11;;;;;;;3.88;0.60;;;;;;;-0.35;70.58;100402.72;5051165;28;20405;-62
2021/11/15 04:42:37;;;;;;;0.70;0.70;;;;;;;-0.38;70.48;100396.00;5033566;28;20041;-62
2021/11/15 04:45:04;;;;;;;1.05;0.80;;;;;;;-0.36;70.41;100396.69;5050398;28;20067;-63
2021/11/15 04:47:30;;;;;;;0.70;0.70;;;;;;;-0.50;70.94;100404.94;5051303;28;20083;-63
2021/11/15 04:49:56;;;;;;;0.73;0.73;;;;;;;-0.35;70.00;100407.94;5050299;28;20068;-61
2021/11/15 04:52:22;;;;;;;0.70;0.70;;;;;;;-0.33;70.04;100416.41;5051764;28;20506;-63
2021/11/15 04:54:48;;;;;;;0.80;0.80;;;;;;;-0.37;69.47;100418.50;5049573;28;20043;-61
2021/11/15 04:57:16;;;;;;;0.70;0.70;;;;;;;-0.34;69.49;100417.38;5051582;28;20414;-62
2021/11/15 04:59:43;;;;;;;0.75;0.75;;;;;;;-0.35;69.31;100420.97;5051180;28;20094;-62
2021/11/15 05:02:09;;;;;;;0.60;0.60;;;;;;;-0.45;69.28;100431.38;5051722;28;20526;-62
2021/11/15 05:04:35;;;;;;;0.70;0.70;;;;;;;-0.37;69.56;100431.50;5051296;28;20413;-62
2021/11/15 05:07:01;;;;;;;0.60;0.60;;;;;;;-0.32;69.81;100442.34;5050013;28;20119;-63
2021/11/15 05:09:27;;;;;;;0.70;0.70;;;;;;;-0.23;68.84;100440.69;5050012;28;20132;-68
2021/11/15 05:11:53;;;;;;;1.08;0.75;;;;;;;-0.25;68.58;100447.81;5051503;28;20083;-61
2021/11/15 05:14:18;;;;;;;1.40;0.98;;;;;;;-0.22;68.73;100444.09;5050815;28;20049;-63
2021/11/15 05:16:44;;;;;;;2.03;0.88;;;;;;;-0.20;68.79;100463.03;5050767;28;20052;-62
2021/11/15 05:19:10;;;;;;;2.78;0.80;;;;;;;-0.34;68.11;100472.91;5050732;28;20044;-69
2021/11/15 05:21:36;;;;;;;1.13;0.82;;;;;;;-0.30;68.29;100469.06;5052127;28;20049;-68
2021/11/15 05:24:02;;;;;;;1.25;0.95;;;;;;;-0.36;68.49;100480.03;5054904;28;20065;-68
2021/11/15 05:26:29;;;;;;;1.30;0.82;;;;;;;-0.38;67.96;100491.56;5053749;28;20477;-62
2021/11/15 05:28:56;;;;;;;1.02;0.80;;;;;;;-0.48;68.36;100483.75;5054875;28;20041;-63
2021/11/15 05:31:22;;;;;;;0.95;0.80;;;;;;;-0.42;67.75;100488.41;5053687;28;20049;-63
2021/11/15 05:33:48;;;;;;;0.70;0.70;;;;;;;-0.55;68.16;100514.75;5053784;28;20091;-62
2021/11/15 05:36:14;;;;;;;0.60;0.60;;;;;;;-0.54;68.26;100510.38;5053555;28;20458;-61
2021/11/15 05:38:40;;;;;;;2.90;0.88;;;;;;;-0.60;68.51;100511.72;5054812;28;20407;-62
2021/11/15 05:41:05;;;;;;;0.80;0.80;;;;;;;-0.67;68.70;100515.88;5053460;28;20048;-62
2021/11/15 05:43:32;;;;;;;1.08;1.00;;;;;;;-0.64;68.92;100518.19;5054954;28;20044;-63
2021/11/15 05:45:58;;;;;;;1.13;0.85;;;;;;;-0.70;68.54;100527.38;5053082;28;20071;-63
2021/11/15 05:48:24;;;;;;;2.33;0.98;;;;;;;-0.63;68.53;100526.81;5054956;28;20040;-64
2021/11/15 05:50:50;;;;;;;0.80;0.80;;;;;;;-0.70;68.33;100557.81;5054294;28;20052;-63
2021/11/15 05:53:16;;;;;;;1.63;1.05;;;;;;;-0.67;68.37;100536.69;5054524;28;20387;-62
2021/11/15 05:55:43;;;;;;;1.05;1.00;;;;;;;-0.66;68.39;100561.75;5054318;28;20048;-62
2021/11/15 05:58:09;;;;;;;1.83;1.00;;;;;;;-0.78;68.58;100547.22;5053105;28;20103;-63
2021/11/15 06:00:38;;;;;;;1.45;1.00;;;;;;;-0.73;69.25;100548.47;5054372;28;20051;-61
2021/11/15 06:03:05;;;;;;;1.90;0.95;;;;;;;-0.91;69.01;100544.91;5053132;28;20576;-63
2021/11/15 06:05:31;;;;;;;1.35;1.10;;;;;;;-0.88;69.54;100544.63;5052963;28;20075;-62
2021/11/15 06:07:57;;;;;;;2.47;1.05;;;;;;;-0.93;69.77;100546.81;5054175;28;20506;-62
2021/11/15 06:10:23;;;;;;;2.65;1.52;;;;;;;-0.94;70.51;100548.59;5054235;28;20056;-61
2021/11/15 06:12:50;;;;;;;1.10;1.00;;;;;;;-1.04;70.14;100559.91;5054213;28;20040;-63
2021/11/15 06:15:17;;;;;;;1.90;1.00;;;;;;;-1.05;70.94;100548.69;5053907;28;20045;-62
2021/11/15 06:17:44;;;;;;;2.30;1.20;;;;;;;-0.95;70.75;100551.31;5052908;28;20502;-62
2021/11/15 06:20:12;;;;;;;1.58;0.95;;;;;;;-0.99;71.04;100562.97;5052615;28;20556;-63
2021/11/15 06:22:38;;;;;;;1.30;1.13;;;;;;;-0.90;70.54;100564.75;5054235;28;20135;-64
2021/11/15 06:25:08;;;;;;;1.05;0.98;;;;;;;-0.85;70.51;100559.13;5053664;28;20061;-65
2021/11/15 06:27:35;;;;;;;2.60;1.00;;;;;;;-0.70;69.95;100563.00;5052636;28;20081;-63
2021/11/15 06:30:01;;;;;;;1.58;1.10;;;;;;;-0.61;69.21;100569.19;5053562;28;20123;-65
2021/11/15 06:32:26;;;;;;;3.80;1.90;;;;;;;-0.54;69.67;100578.91;5052380;28;20041;-65
2021/11/15 06:34:52;;;;;;;1.58;1.08;;;;;;;-0.50;68.66;100572.47;5048061;28;20442;-64
2021/11/15 06:37:18;;;;;;;1.40;1.05;;;;;;;-0.48;68.79;100580.16;5047303;28;20457;-65
2021/11/15 06:39:44;;;;;;;1.45;1.23;;;;;;;-0.53;69.29;100584.94;5051878;28;20045;-64
2021/11/15 06:42:10;;;;;;;2.45;1.30;;;;;;;-0.42;68.47;100612.63;5051881;28;20048;-64
2021/11/15 06:44:35;;;;;;;1.65;1.15;;;;;;;-0.31;68.41;100589.88;5050399;28;20040;-63
2021/11/15 06:47:02;;;;;;;1.90;1.00;;;;;;;-0.14;69.09;100588.38;5050707;28;20497;-63
2021/11/15 06:49:28;;;;;;;2.33;1.73;;;;;;;-0.05;68.12;100602.34;5032342;28;20041;-64
2021/11/15 06:51:54;;;;;;;2.95;1.02;;;;;;;-0.03;67.42;100608.25;5051460;28;20045;-63
2021/11/15 06:54:20;;;;;;;1.40;1.00;;;;;;;0.02;67.66;100616.47;5049600;28;20195;-64
2021/11/15 06:56:46;;;;;;;1.13;1.02;;;;;;;0.01;67.54;100621.84;5032585;28;20081;-64
2021/11/15 06:59:12;;;;;;;1.48;1.02;;;;;;;-0.04;67.74;100628.28;5048433;28;20216;-64
2021/11/15 07:01:38;;;;;;;1.30;1.20;;;;;;;-0.02;68.00;100625.53;5048733;28;20418;-64
2021/11/15 07:04:06;;;;;;;1.20;1.10;;;;;;;-0.01;67.61;100637.59;5051270;28;20048;-65
2021/11/15 07:06:32;;;;;;;1.63;1.20;;;;;;;-0.04;67.71;100636.09;5033230;28;20041;-65
2021/11/15 07:08:58;;;;;;;1.65;1.30;;;;;;;0.17;67.24;100648.16;5050293;28;20057;-65
2021/11/15 07:11:24;;;;;;;1.30;1.20;;;;;;;0.18;67.29;100653.25;5046656;28;20040;-64
2021/11/15 07:13:50;;;;;;;1.20;1.10;;;;;;;0.30;67.05;100655.72;5049168;28;20067;-63
2021/11/15 07:16:16;;;;;;;2.13;1.25;;;;;;;0.30;66.63;100668.75;5046304;28;20076;-64
2021/11/15 07:18:42;;;;;;;1.73;1.38;;;;;;;0.30;66.58;100669.56;5047420;28;20045;-65
2021/11/15 07:21:08;;;;;;;1.45;1.10;;;;;;;0.24;66.29;100683.16;5050332;28;20052;-64
2021/11/15 07:23:34;;;;;;;1.85;1.13;;;;;;;0.24;66.54;100677.94;5050573;28;20037;-63
2021/11/15 07:26:00;;;;;;;2.28;1.50;;;;;;;0.19;66.60;100680.97;5052082;28;20044;-64
2021/11/15 07:28:26;;;;;;;2.03;1.40;;;;;;;0.19;67.16;100693.19;5035261;28;20042;-64
2021/11/15 07:30:55;;;;;;;2.60;1.63;;;;;;;0.32;66.15;100696.31;5029165;28;20057;-63
2021/11/15 07:33:22;;;;;;;1.55;1.23;;;;;;;0.35;66.01;100701.25;5029994;28;20037;-64
2021/11/15 07:35:49;;;;;;;1.17;1.10;;;;;;;0.33;65.35;100724.06;5028367;28;20052;-63
2021/11/15 07:38:16;;;;;;;1.95;1.50;;;;;;;0.31;65.51;100723.38;5029525;28;20041;-64
2021/11/15 07:40:42;;;;;;;2.38;1.38;;;;;;;0.34;65.81;100723.09;5029308;28;20052;-64
2021/11/15 07:43:08;;;;;;;4.32;1.85;;;;;;;0.19;66.07;100724.47;5029628;28;20037;-64
2021/11/15 07:45:34;;;;;;;2.72;1.77;;;;;;;0.28;66.04;100728.84;5030300;28;20561;-64
2021/11/15 07:47:59;;;;;;;2.60;1.80;;;;;;;0.38;65.53;100742.75;5030059;28;20503;-64
2021/11/15 07:50:25;;;;;;;1.67;1.58;;;;;;;0.51;65.79;100721.56;5030291;28;20410;-64
2021/11/15 07:52:52;;;;;;;2.65;1.65;;;;;;;0.57;65.16;100733.25;5030328;28;20042;-64
2021/11/15 07:55:18;;;;;;;2.72;1.60;;;;;;;0.69;65.19;100750.38;5029376;28;20053;-66
2021/11/15 07:57:45;;;;;;;1.48;1.20;;;;;;;0.58;64.75;100747.91;5029518;28;20124;-62
2021/11/15 08:00:14;;;;;;;1.35;1.13;;;;;;;0.51;64.27;100752.88;5049243;28;20043;-64
2021/11/15 08:02:40;;;;;;;1.23;1.13;;;;;;;0.47;64.78;100753.28;5049275;28;20502;-64
2021/11/15 08:05:08;;;;;;;1.83;1.25;;;;;;;0.49;64.23;100754.78;5046595;28;20151;-64
2021/11/15 08:07:34;;;;;;;1.92;1.38;;;;;;;0.39;64.78;100757.41;5049179;28;20398;-63
2021/11/15 08:10:05;;;;;;;1.50;1.40;;;;;;;0.58;63.43;100751.34;5048847;28;20155;-63
2021/11/15 08:12:35;;;;;;;2.72;1.45;;;;;;;0.76;64.44;100753.25;5049389;28;20035;-64
2021/11/15 08:15:04;;;;;;;1.88;1.50;;;;;;;0.82;63.73;100766.56;5049307;28;20426;-64
2021/11/15 08:17:30;;;;;;;1.40;1.30;;;;;;;0.82;62.23;100760.53;5016195;28;20106;-65
2021/11/15 08:19:56;;;;;;;1.27;1.17;;;;;;;0.71;63.51;100771.97;5050383;28;20083;-64
2021/11/15 08:22:22;;;;;;;1.50;1.40;;;;;;;0.84;63.07;100782.09;5049216;28;20628;-65
2021/11/15 08:24:51;;;;;;;1.40;1.30;;;;;;;0.80;62.69;100773.72;5048510;28;20091;-66
2021/11/15 08:27:17;;;;;;;1.92;1.50;;;;;;;0.79;62.88;100787.72;5050201;28;20596;-67
2021/11/15 08:29:43;;;;;;;1.30;1.20;;;;;;;0.82;62.61;100779.59;5047261;28;20120;-66
2021/11/15 08:32:09;;;;;;;1.60;1.45;;;;;;;0.89;62.98;100782.50;5045914;28;20197;-68
2021/11/15 08:34:35;;;;;;;1.35;1.25;;;;;;;0.90;61.78;100794.59;5046811;28;20062;-65
2021/11/15 08:37:05;;;;;;;2.88;1.50;;;;;;;0.84;61.23;100788.13;5046416;28;20043;-68
2021/11/15 08:39:32;;;;;;;;;;;;;;;0.86;61.18;100799.28;5016046;28;20049;-65
2021/11/15 08:42:02;;;;;;;1.45;1.23;;;;;;;0.93;61.16;100814.38;5049738;28;19924;-65
2021/11/15 08:44:29;;;;;;;1.38;1.25;;;;;;;0.86;60.50;100814.13;5048271;28;20041;-66
2021/11/15 08:46:56;;;;;;;4.43;1.60;;;;;;;0.88;60.87;100814.78;5047875;28;20148;-66
2021/11/15 08:49:33;;;;;;;1.42;1.30;;;;;;;0.95;61.07;100820.28;5049598;28;20568;-67
2021/11/15 08:52:01;;;;;;;2.60;1.45;;;;;;;0.89;60.74;100817.25;5047921;28;20399;-67
2021/11/15 08:54:27;;;;;;;1.67;1.40;;;;;;;1.07;60.35;100819.16;5048020;28;20045;-66
2021/11/15 08:57:00;;;;;;;1.40;1.30;;;;;;;1.10;59.12;100839.78;5050539;28;20056;-66
2021/11/15 08:59:25;;;;;;;1.05;1.00;;;;;;;1.02;59.36;100826.59;5046225;28;20066;-65
2021/11/15 09:01:52;;;;;;;1.00;1.00;;;;;;;0.89;59.19;100842.56;5047811;28;20416;-68
2021/11/15 09:04:17;;;;;;;1.00;1.00;;;;;;;1.02;59.58;100855.31;5046325;28;20044;-66
2021/11/15 09:06:44;;;;;;;1.40;1.30;;;;;;;0.98;58.65;100839.09;5048626;28;20056;-67
2021/11/15 09:09:15;;;;;;;1.92;1.30;;;;;;;1.02;59.96;100844.88;5049455;28;20033;-67
2021/11/15 09:11:46;;;;;;;1.35;1.25;;;;;;;1.19;58.86;100835.50;5049528;28;20044;-68
2021/11/15 09:14:13;;;;;;;1.40;1.30;;;;;;;1.23;58.98;100837.66;5048566;28;20139;-67
2021/11/15 09:16:39;;;;;;;1.50;1.40;;;;;;;1.39;59.14;100838.91;5048652;28;20528;-66
2021/11/15 09:19:05;;;;;;;1.52;1.42;;;;;;;1.40;57.98;100841.34;5049536;28;20045;-65
2021/11/15 09:21:31;;;;;;;1.30;1.20;;;;;;;1.34;57.54;100840.13;5050040;28;20046;-66
2021/11/15 09:23:56;;;;;;;1.30;1.20;;;;;;;1.33;58.15;100840.28;5049694;28;20106;-65
2021/11/15 09:26:26;;;;;;;1.30;1.20;;;;;;;1.29;58.18;100852.78;5031394;28;20045;-66
2021/11/15 09:28:53;;;;;;;1.65;1.40;;;;;;;1.26;58.63;100857.47;5049468;28;20418;-66
2021/11/15 09:31:19;;;;;;;1.30;1.20;;;;;;;1.18;59.49;100855.56;5049438;28;20124;-67
2021/11/15 09:33:45;;;;;;;1.02;0.93;;;;;;;1.09;58.85;100865.06;5030970;28;20136;-67
2021/11/15 09:36:11;;;;;;;1.15;1.13;;;;;;;1.12;59.67;100867.41;5048913;28;20048;-63
2021/11/15 09:38:39;;;;;;;3.13;1.20;;;;;;;1.14;60.40;100868.06;5048985;28;20049;-68
2021/11/15 09:41:06;;;;;;;1.35;1.20;;;;;;;1.18;59.72;100881.69;5047108;28;20049;-67
2021/11/15 09:43:35;;;;;;;1.33;1.02;;;;;;;1.14;60.30;100870.69;5047839;28;20387;-66
2021/11/15 09:46:07;;;;;;;1.48;1.20;;;;;;;1.30;60.26;100884.97;5049548;28;20684;-66
2021/11/15 09:48:35;;;;;;;2.50;1.25;;;;;;;1.33;59.77;100893.34;5047948;28;20045;-67
2021/11/15 09:51:02;;;;;;;1.55;1.10;;;;;;;1.27;60.00;100886.06;5049207;28;20077;-67
2021/11/15 09:53:28;;;;;;;2.35;1.35;;;;;;;1.32;61.04;100885.63;5048186;28;20041;-67
2021/11/15 09:55:55;;;;;;;1.10;1.00;;;;;;;1.31;60.04;100881.38;5049037;28;20056;-68
2021/11/15 09:58:23;;;;;;;1.73;1.15;;;;;;;1.32;59.33;100896.94;5047640;28;20063;-67
2021/11/15 10:00:49;;;;;;;2.17;0.90;;;;;;;1.29;58.99;100902.41;5012780;28;20540;-67
2021/11/15 10:03:16;;;;;;;1.33;1.23;;;;;;;1.26;58.76;100900.09;5045420;28;20132;-67
2021/11/15 10:05:44;;;;;;;1.60;1.20;;;;;;;1.29;59.28;100897.19;5044892;28;20045;-67
2021/11/15 10:08:12;;;;;;;2.15;1.00;;;;;;;1.29;59.00;100894.56;5048401;28;20399;-69
2021/11/15 10:10:45;;;;;;;1.52;1.08;;;;;;;1.21;59.05;100906.72;5050180;28;20072;-67
2021/11/15 10:13:16;;;;;;;1.23;1.15;;;;;;;1.15;58.51;100897.66;5050447;28;20045;-66
2021/11/15 10:15:58;;;;;;;2.22;1.30;;;;;;;1.04;58.81;100906.44;5048914;28;20040;-62
2021/11/15 10:19:03;;;;;;;2.05;0.90;;;;;;;1.16;59.40;100901.06;5051863;28;20072;-63
2021/11/15 10:21:54;;;;;;;2.05;1.20;;;;;;;1.17;58.84;100911.38;5012567;28;20430;-63
2021/11/15 10:24:36;;;;;;;1.20;1.10;;;;;;;1.22;58.77;100921.41;5050501;28;20060;-63
2021/11/15 10:27:10;;;;;;;1.33;1.10;;;;;;;1.08;59.13;100917.44;5049892;28;20041;-64
2021/11/15 10:29:44;;;;;;;1.75;1.38;;;;;;;1.10;59.14;100910.28;5017302;28;20484;-63
2021/11/15 10:32:15;;;;;;;1.30;1.05;;;;;;;1.29;58.99;100912.88;5049836;28;20093;-63
2021/11/15 10:34:51;;;;;;;1.88;1.50;;;;;;;1.41;58.25;100923.97;5050466;28;20158;-62
2021/11/15 10:37:28;;;;;;;1.35;1.08;;;;;;;1.38;58.35;100924.25;5048306;28;20036;-63
2021/11/15 10:39:56;;;;;;;1.27;1.17;;;;;;;1.29;57.09;100931.16;5049540;28;20130;-62
2021/11/15 10:42:28;;;;;;;1.30;1.20;;;;;;;1.27;57.82;100927.88;5049510;28;20037;-64
2021/11/15 10:45:01;;;;;;;1.48;1.20;;;;;;;1.30;58.20;100924.97;5050949;28;20049;-63
2021/11/15 10:47:32;;;;;;;1.98;1.63;;;;;;;1.33;58.37;100931.72;5052978;28;20055;-63
2021/11/15 10:50:31;;;;;;;1.27;1.20;;;;;;;1.44;58.32;100935.94;5052049;28;20045;-62
2021/11/15 10:53:10;;;;;;;0.90;0.90;;;;;;;1.25;57.25;100926.38;5045765;28;20049;-62
2021/11/15 10:55:45;;;;;;;1.37;1.10;;;;;;;1.34;57.33;100936.78;5050919;28;20048;-63
2021/11/15 10:58:18;;;;;;;1.33;1.20;;;;;;;1.35;57.70;100935.00;5051520;28;20052;-62
2021/11/15 11:00:54;;;;;;;1.85;1.30;;;;;;;1.35;58.33;100929.78;5049311;28;20036;-64
2021/11/15 11:03:22;;;;;;;1.30;1.20;;;;;;;1.39;57.69;100939.00;5050659;28;20128;-64
2021/11/15 11:05:50;;;;;;;1.70;1.17;;;;;;;1.30;58.34;100943.28;5033079;28;20044;-62
2021/11/15 11:08:20;;;;;;;1.45;1.17;;;;;;;1.29;57.60;100946.00;5050666;28;20041;-63
2021/11/15 11:11:00;;;;;;;1.30;1.20;;;;;;;1.24;58.53;100946.44;5031196;28;20123;-63
2021/11/15 11:13:38;;;;;;;1.70;1.30;;;;;;;1.32;57.05;100958.78;5048272;28;20132;-63
2021/11/15 11:16:05;;;;;;;1.02;1.00;;;;;;;1.35;57.33;100956.75;5049539;28;20481;-63
2021/11/15 11:18:37;;;;;;;1.98;1.25;;;;;;;1.44;57.66;100964.69;5031722;28;20045;-63
2021/11/15 11:26:33;;;;;;;1.77;1.25;;;;;;;1.44;55.79;100968.16;5030817;28;20037;-63
2021/11/15 11:29:11;;;;;;;1.13;1.00;;;;;;;1.35;54.95;100982.88;5050691;28;20114;-63
2021/11/15 11:31:40;;;;;;;1.27;1.10;;;;;;;1.18;56.09;100967.03;5013312;28;20044;-62
2021/11/15 11:34:06;;;;;;;1.30;1.20;;;;;;;1.22;56.07;100977.09;5049531;28;20076;-63
2021/11/15 11:36:32;;;;;;;1.50;1.10;;;;;;;1.16;55.93;100982.03;5051507;28;20040;-62
2021/11/15 11:38:58;;;;;;;2.20;1.00;;;;;;;1.12;55.26;100986.72;5031587;28;20086;-63